»·PEaware :: UAL784 KSFO-CYVR

UAL784 :: KSFO-CYVR

FLIGHT INFORMATION

Flight Status: Arrived
Operator:
United Airlines
More flights by this operator :: More flights under this callsign
Pilot: Henderson P. (1210)
Aircraft: AIRBUS A320
(A320)
More flights by this aircraft type
Origin: KSFO San Francisco Intl
United States
Destination: CYVR Vancouver Intl
Canada
More flights between these airports :: More routes between these airports
Route: TRUKN2 DEDHD BTG J1 SEA PAE GRIZZ6
File this flight plan on PilotEdge
Remarks:
Altitude:
(Current/Filed)
30,000ft
Speed:
(Current/Filed)
462kts
Departed: 07-May-19 07:52 AM
Arrived: 07-May-19 09:50 AM
Distance/Time
Traveled:
696nm/1:58
Distance/Time
To Go:
Arrived

Flight Plot

Page will automatically refresh every two minutes.

Flight plan parsing failed; only flown route is shown


Map Options




Map Legend


Flown Route
Filed Route
Departure Airport
Arrival Airport
Navaid (VOR, NDB)
Fix

Horizontal Profiles

Position Reports

Time Latitude Longitude Heading Altitude Ground
Speed
07-May-19 06:34 37.620439 -122.389967 27 27ft 0kts
07-May-19 06:35 37.620439 -122.389967 27 27ft 0kts
07-May-19 06:36 37.620439 -122.389967 27 27ft 0kts
07-May-19 06:37 37.620439 -122.389967 27 27ft 0kts
07-May-19 06:38 37.620439 -122.389967 27 27ft 0kts
07-May-19 06:39 37.620439 -122.389967 27 27ft 0kts
07-May-19 06:40 37.620439 -122.389967 27 27ft 0kts
07-May-19 06:41 37.620439 -122.389967 27 27ft 0kts
07-May-19 06:42 37.620439 -122.389967 27 27ft 0kts
07-May-19 06:43 37.620439 -122.389967 27 27ft 0kts
07-May-19 06:44 37.620439 -122.389967 27 27ft 0kts
07-May-19 06:45 37.620439 -122.389967 27 27ft 0kts
07-May-19 06:46 37.620439 -122.389967 27 27ft 0kts
07-May-19 06:47 37.620439 -122.389967 27 27ft 0kts
07-May-19 06:48 37.620439 -122.389967 27 27ft 0kts
07-May-19 06:49 37.620439 -122.389967 27 27ft 0kts
07-May-19 06:50 37.620439 -122.389967 27 27ft 0kts
07-May-19 06:51 37.620439 -122.389967 27 27ft 0kts
07-May-19 06:52 37.620439 -122.389967 27 27ft 0kts
07-May-19 06:53 37.620439 -122.389967 27 27ft 0kts
07-May-19 06:54 37.620439 -122.389967 27 27ft 0kts
07-May-19 06:55 37.620439 -122.389967 27 27ft 0kts
07-May-19 06:56 37.620439 -122.389967 27 27ft 0kts
07-May-19 06:57 37.620439 -122.389967 27 27ft 0kts
07-May-19 06:58 37.620439 -122.389967 27 27ft 0kts
07-May-19 06:59 37.620439 -122.389967 27 27ft 0kts
07-May-19 07:00 37.620439 -122.389967 27 27ft 0kts
07-May-19 07:01 37.620439 -122.389967 27 27ft 0kts
07-May-19 07:02 37.620439 -122.389967 27 27ft 0kts
07-May-19 07:03 37.620439 -122.389967 27 27ft 0kts
07-May-19 07:04 37.620439 -122.389967 27 27ft 0kts
07-May-19 07:05 37.620439 -122.389967 27 27ft 0kts
07-May-19 07:06 37.620439 -122.389967 27 27ft 0kts
07-May-19 07:07 37.620439 -122.389967 27 27ft 0kts
07-May-19 07:08 37.620439 -122.389967 27 27ft 0kts
07-May-19 07:09 37.620439 -122.389967 27 27ft 0kts
07-May-19 07:10 37.620439 -122.389967 27 27ft 0kts
07-May-19 07:11 37.620439 -122.389967 27 27ft 0kts
07-May-19 07:12 37.620439 -122.389967 27 27ft 0kts
07-May-19 07:13 37.620439 -122.389967 27 27ft 0kts
07-May-19 07:14 37.620439 -122.389967 27 27ft 0kts
07-May-19 07:15 37.620439 -122.389967 27 27ft 0kts
07-May-19 07:16 37.620439 -122.389967 27 27ft 0kts
07-May-19 07:17 37.620439 -122.389967 27 27ft 0kts
07-May-19 07:18 37.620439 -122.389967 27 27ft 0kts
07-May-19 07:19 37.620439 -122.389967 27 27ft 0kts
07-May-19 07:20 37.620439 -122.389967 27 27ft 0kts
07-May-19 07:21 37.620439 -122.389967 27 27ft 0kts
07-May-19 07:22 37.620439 -122.389967 27 27ft 0kts
07-May-19 07:23 37.620439 -122.389967 27 27ft 0kts
07-May-19 07:24 37.620439 -122.389967 27 27ft 0kts
07-May-19 07:25 37.620439 -122.389967 27 27ft 0kts
07-May-19 07:26 37.620439 -122.389967 27 27ft 0kts
07-May-19 07:27 37.620439 -122.389967 27 27ft 0kts
07-May-19 07:28 37.620439 -122.389967 27 27ft 0kts
07-May-19 07:29 37.620439 -122.389967 27 27ft 0kts
07-May-19 07:30 37.620439 -122.389967 27 27ft 0kts
07-May-19 07:31 37.620439 -122.389967 27 27ft 0kts
07-May-19 07:32 37.620439 -122.389967 27 27ft 0kts
07-May-19 07:33 37.620439 -122.389967 27 27ft 0kts
07-May-19 07:34 37.620074 -122.390201 27 27ft 2kts
07-May-19 07:35 37.619744 -122.390413 26 27ft 0kts
07-May-19 07:36 37.619744 -122.390412 26 27ft 0kts
07-May-19 07:37 37.619745 -122.390412 26 27ft 0kts
07-May-19 07:38 37.619752 -122.390408 26 27ft 0kts
07-May-19 07:39 37.619979 -122.391082 303 27ft 3kts
07-May-19 07:40 37.620122 -122.391485 296 27ft 1kts
07-May-19 07:41 37.621390 -122.391659 25 27ft 9kts
07-May-19 07:42 37.622299 -122.388322 117 27ft 14kts
07-May-19 07:43 37.620438 -122.383874 117 27ft 15kts
07-May-19 07:44 37.617277 -122.379434 182 27ft 17kts
07-May-19 07:45 37.613481 -122.381729 207 27ft 16kts
07-May-19 07:46 37.609686 -122.384125 128 27ft 8kts
07-May-19 07:47 37.609314 -122.383218 118 27ft 0kts
07-May-19 07:48 37.609313 -122.383218 118 27ft 0kts
07-May-19 07:49 37.609313 -122.383217 118 27ft 0kts
07-May-19 07:50 37.609907 -122.381594 28 27ft 35kts
07-May-19 07:51 37.641815 -122.360273 39 999ft 157kts
07-May-19 07:52 37.666178 -122.313508 56 2827ft 164kts
07-May-19 07:53 37.695116 -122.257633 56 4153ft 220kts
07-May-19 07:54 37.746653 -122.208076 4 6240ft 267kts
07-May-19 07:55 37.822367 -122.197555 7 9126ft 281kts
07-May-19 07:56 37.904459 -122.184010 7 10840ft 329kts
07-May-19 07:57 38.002833 -122.167820 7 12135ft 374kts
07-May-19 07:58 38.107213 -122.150644 7 14264ft 383kts
07-May-19 07:59 38.214252 -122.132943 7 16187ft 392kts
07-May-19 08:00 38.323401 -122.114862 7 17946ft 400kts
07-May-19 08:01 38.425917 -122.117830 357 19411ft 409kts
07-May-19 08:02 38.539237 -122.124533 358 20879ft 417kts
07-May-19 08:03 38.656156 -122.131368 358 22239ft 425kts
07-May-19 08:04 38.763856 -122.137592 358 23385ft 431kts
07-May-19 08:05 38.884484 -122.144634 358 24572ft 437kts
07-May-19 08:07 39.006738 -122.151796 358 25703ft 441kts
07-May-19 08:08 39.129471 -122.159031 358 26896ft 440kts
07-May-19 08:09 39.251071 -122.166202 358 28314ft 433kts
07-May-19 08:10 39.370352 -122.173253 359 29657ft 426kts
07-May-19 08:11 39.487987 -122.180242 359 30155ft 422kts
07-May-19 08:12 39.605541 -122.187258 359 30151ft 422kts
07-May-19 08:13 39.722392 -122.194239 359 30109ft 419kts
07-May-19 08:14 39.839244 -122.201234 359 30094ft 420kts
07-May-19 08:15 39.956257 -122.208279 359 30126ft 421kts
07-May-19 08:16 40.054684 -122.214253 359 30216ft 419kts
07-May-19 08:17 40.152369 -122.220132 359 30183ft 420kts
07-May-19 08:18 40.269110 -122.227256 359 30162ft 420kts
07-May-19 08:19 40.385670 -122.234350 359 30120ft 420kts
07-May-19 08:20 40.502711 -122.241536 358 30067ft 421kts
07-May-19 08:21 40.619571 -122.248696 358 30094ft 421kts
07-May-19 08:22 40.736708 -122.255929 358 30162ft 421kts
07-May-19 08:23 40.853670 -122.263146 358 30155ft 419kts
07-May-19 08:24 40.970304 -122.270395 358 30089ft 419kts
07-May-19 08:25 41.086755 -122.277647 358 30094ft 420kts
07-May-19 08:26 41.203659 -122.284960 358 30153ft 420kts
07-May-19 08:27 41.320569 -122.292299 358 30187ft 420kts
07-May-19 08:27 41.417570 -122.298376 357 30185ft 418kts
07-May-19 08:29 41.553055 -122.306986 357 30116ft 417kts
07-May-19 08:30 41.669216 -122.314353 357 30121ft 417kts
07-May-19 08:30 41.765749 -122.320462 357 30138ft 418kts
07-May-19 08:32 41.901734 -122.329160 357 30213ft 418kts
07-May-19 08:32 41.998321 -122.335349 357 30206ft 417kts
07-May-19 08:33 42.114154 -122.342788 357 30124ft 417kts
07-May-19 08:35 42.249707 -122.351583 357 30124ft 417kts
07-May-19 08:35 42.346106 -122.357818 357 30156ft 417kts
07-May-19 08:37 42.481638 -122.366627 357 30172ft 418kts
07-May-19 08:37 42.578357 -122.372930 357 30137ft 418kts
07-May-19 08:38 42.695034 -122.380575 357 30160ft 418kts
07-May-19 08:39 42.810875 -122.388201 357 30189ft 417kts
07-May-19 08:40 42.926788 -122.395842 357 30189ft 417kts
07-May-19 08:41 43.043062 -122.403551 357 30186ft 418kts
07-May-19 08:42 43.159115 -122.411285 357 30207ft 417kts
07-May-19 08:43 43.274959 -122.418975 357 30167ft 417kts
07-May-19 08:44 43.390466 -122.426728 357 30203ft 415kts
07-May-19 08:45 43.506019 -122.434497 357 30136ft 416kts
07-May-19 08:46 43.621625 -122.442318 357 30146ft 414kts
07-May-19 08:47 43.737083 -122.450141 357 30125ft 416kts
07-May-19 08:48 43.852662 -122.457995 357 30174ft 415kts
07-May-19 08:49 43.967658 -122.465844 357 30208ft 414kts
07-May-19 08:50 44.082790 -122.473778 357 30205ft 413kts
07-May-19 08:51 44.197968 -122.481651 357 30162ft 413kts
07-May-19 08:52 44.313033 -122.489623 357 30121ft 414kts
07-May-19 08:53 44.427811 -122.497588 356 30122ft 414kts
07-May-19 08:54 44.542854 -122.505620 356 30154ft 414kts
07-May-19 08:55 44.657635 -122.513615 356 30186ft 414kts
07-May-19 08:56 44.772641 -122.521722 356 30218ft 413kts
07-May-19 08:57 44.887479 -122.529781 356 30174ft 413kts
07-May-19 08:58 45.001248 -122.537823 356 30190ft 411kts
07-May-19 08:59 45.115647 -122.545973 356 30143ft 411kts
07-May-19 09:00 45.227787 -122.553972 356 30147ft 410kts
07-May-19 09:01 45.341584 -122.562132 356 30137ft 410kts
07-May-19 09:02 45.455411 -122.570315 356 30211ft 409kts
07-May-19 09:03 45.568881 -122.578523 356 30214ft 408kts
07-May-19 09:04 45.682038 -122.586725 356 30202ft 407kts
07-May-19 09:05 45.795624 -122.584522 4 30167ft 408kts
07-May-19 09:06 45.908124 -122.565351 4 30145ft 408kts
07-May-19 09:07 46.020998 -122.547088 4 30167ft 407kts
07-May-19 09:08 46.133309 -122.528683 4 30229ft 405kts
07-May-19 09:09 46.245352 -122.510245 4 30178ft 405kts
07-May-19 09:10 46.357243 -122.491737 4 30144ft 405kts
07-May-19 09:11 46.469616 -122.473109 4 30148ft 405kts
07-May-19 09:12 46.581755 -122.454418 4 30167ft 405kts
07-May-19 09:13 46.693758 -122.435697 4 30177ft 405kts
07-May-19 09:14 46.803771 -122.417203 4 30168ft 403kts
07-May-19 09:15 46.908131 -122.399571 3 30134ft 398kts
07-May-19 09:16 47.008098 -122.382699 3 30171ft 403kts
07-May-19 09:17 47.099345 -122.367153 3 30183ft 402kts
07-May-19 09:18 47.210727 -122.348150 3 30202ft 402kts
07-May-19 09:19 47.319923 -122.329477 3 30205ft 400kts
07-May-19 09:20 47.430156 -122.310583 2 30137ft 398kts
07-May-19 09:21 47.528482 -122.303467 359 29645ft 392kts
07-May-19 09:22 47.638207 -122.296312 0 28654ft 396kts
07-May-19 09:23 47.748739 -122.289078 359 27667ft 401kts
07-May-19 09:24 47.860787 -122.281687 359 26679ft 406kts
07-May-19 09:25 47.973446 -122.292095 347 25688ft 408kts
07-May-19 09:26 48.084517 -122.325632 348 24698ft 406kts
07-May-19 09:27 48.195176 -122.357434 347 23654ft 402kts
07-May-19 09:28 48.303014 -122.388948 347 20870ft 389kts
07-May-19 09:29 48.408023 -122.419692 347 18028ft 379kts
07-May-19 09:30 48.495836 -122.445564 347 15535ft 373kts
07-May-19 09:31 48.597665 -122.475605 348 12777ft 369kts
07-May-19 09:32 48.690696 -122.503178 347 11989ft 312kts
07-May-19 09:33 48.749141 -122.580765 306 11468ft 276kts
07-May-19 09:34 48.795290 -122.672201 308 10472ft 275kts
07-May-19 09:35 48.843076 -122.765956 308 9628ft 280kts
07-May-19 09:36 48.890031 -122.858129 308 8651ft 270kts
07-May-19 09:37 48.933275 -122.943233 308 7846ft 249kts
07-May-19 09:38 48.984474 -123.003861 2 6787ft 237kts
07-May-19 09:39 49.047050 -122.998686 5 6048ft 220kts
07-May-19 09:40 49.072644 -122.929562 94 4844ft 217kts
07-May-19 09:41 49.072381 -122.843392 69 3907ft 198kts
07-May-19 09:42 49.120293 -122.817220 8 2984ft 194kts
07-May-19 09:43 49.164539 -122.839655 280 3004ft 197kts
07-May-19 09:44 49.173542 -122.922549 280 2987ft 197kts
07-May-19 09:45 49.182591 -123.002364 280 2096ft 170kts
07-May-19 09:46 49.189579 -123.063591 281 1310ft 130kts
07-May-19 09:47 49.195677 -123.117131 281 620ft 125kts
07-May-19 09:48 49.201482 -123.168409 281 29ft 112kts
07-May-19 09:49 49.202162 -123.188228 247 28ft 21kts
07-May-19 09:50 49.201089 -123.183942 99 28ft 16kts
07-May-19 09:51 49.200265 -123.176788 100 28ft 18kts
07-May-19 09:52 49.198663 -123.171863 185 28ft 12kts
07-May-19 09:53 49.197695 -123.172831 268 28ft 0kts
07-May-19 09:54 49.197694 -123.172922 268 28ft 0kts
07-May-19 09:55 49.197694 -123.172922 268 28ft 0kts
07-May-19 09:56 49.197694 -123.172922 268 28ft 0kts
07-May-19 09:57 49.197694 -123.172922 268 28ft 0kts
07-May-19 09:58 49.197694 -123.172922 268 28ft 0kts
07-May-19 09:59 49.197694 -123.172922 268 28ft 0kts
07-May-19 10:00 49.197694 -123.172922 268 28ft 0kts
07-May-19 10:01 49.197694 -123.172922 268 28ft 0kts

Navigation Log

Ident Type
Flight plan parsing failed, navigation log unavailable